Time;durP1;ratioP1;P1;durP2;ratioP2;P2;SDS_P1;SDS_P2;PMS_P1;PMS_P2;Temp;Humidity;BMP_temperature;BMP_pressure;BME280_temperature;BME280_humidity;BME280_pressure;Samples;Min_cycle;Max_cycle;Signal;HPM_P1;HPM_P2
2022/08/18 00:02:24;;;;;;;12.93;10.57;;;18.90;99.90;;;;;;5011642;28;20460;-79
2022/08/18 00:04:51;;;;;;;16.60;12.37;;;18.60;99.90;;;;;;5011915;28;20959;-78
2022/08/18 00:07:26;;;;;;;14.50;10.13;;;18.70;99.90;;;;;;5011562;28;20547;-79
2022/08/18 00:09:52;;;;;;;13.30;11.60;;;18.60;99.90;;;;;;4994366;28;20935;-78
2022/08/18 00:12:25;;;;;;;15.43;10.97;;;18.50;99.90;;;;;;5011233;28;20499;-79
2022/08/18 00:14:51;;;;;;;13.43;11.13;;;18.50;99.90;;;;;;5011302;28;20804;-80
2022/08/18 00:17:18;;;;;;;12.97;11.57;;;18.40;99.90;;;;;;4993854;28;20455;-79
2022/08/18 00:19:44;;;;;;;13.30;10.10;;;18.30;99.90;;;;;;5010996;28;20453;-78
2022/08/18 00:22:12;;;;;;;14.87;10.73;;;18.30;99.90;;;;;;5011091;28;20440;-78
2022/08/18 00:24:38;;;;;;;18.03;12.73;;;18.30;99.90;;;;;;4994008;28;20976;-79
2022/08/18 00:27:04;;;;;;;14.53;12.10;;;18.30;99.90;;;;;;4977257;28;20578;-78
2022/08/18 00:29:31;;;;;;;17.60;12.33;;;18.30;99.90;;;;;;4993492;28;20197;-78
2022/08/18 00:31:57;;;;;;;15.03;12.07;;;18.30;99.90;;;;;;4993467;28;20453;-81
2022/08/18 00:34:23;;;;;;;13.03;11.57;;;18.30;99.90;;;;;;4993691;28;20466;-78
2022/08/18 00:36:49;;;;;;;21.13;13.30;;;18.20;99.90;;;;;;5011233;28;20416;-77
2022/08/18 00:39:15;;;;;;;20.77;12.20;;;18.10;99.90;;;;;;5010984;28;20426;-81
2022/08/18 00:41:41;;;;;;;15.47;12.40;;;17.90;99.90;;;;;;5010153;28;20435;-77
2022/08/18 00:44:07;;;;;;;12.40;11.10;;;17.90;99.90;;;;;;5010080;28;20422;-77
2022/08/18 00:46:35;;;;;;;9.20;8.30;;;17.80;99.90;;;;;;5010120;28;20827;-77
2022/08/18 00:49:03;;;;;;;9.80;8.50;;;17.70;99.90;;;;;;5010298;28;20439;-77
2022/08/18 00:51:36;;;;;;;10.17;9.03;;;17.70;99.90;;;;;;4992490;28;20446;-77
2022/08/18 00:54:05;;;;;;;9.83;8.80;;;17.70;99.90;;;;;;5010260;28;20491;-77
2022/08/18 00:56:42;;;;;;;9.53;8.63;;;17.70;99.90;;;;;;5010840;28;20411;-77
2022/08/18 00:59:26;;;;;;;11.40;8.20;;;17.80;99.90;;;;;;5010708;28;20778;-77
2022/08/18 01:01:54;;;;;;;9.80;8.03;;;17.80;99.90;;;;;;4992875;28;20476;-77
2022/08/18 01:04:28;;;;;;;8.03;7.23;;;17.80;99.90;;;;;;4993140;28;20431;-77
2022/08/18 01:07:00;;;;;;;8.53;7.50;;;17.70;99.90;;;;;;4992881;28;20615;-78
2022/08/18 01:09:26;;;;;;;9.13;8.23;;;17.70;99.90;;;;;;4992538;28;20473;-78
2022/08/18 01:11:52;;;;;;;9.00;8.10;;;17.60;99.90;;;;;;4992215;28;20448;-77
2022/08/18 01:14:19;;;;;;;10.80;7.67;;;17.60;99.90;;;;;;4992411;28;20425;-77
2022/08/18 01:22:31;;;;;;;11.10;9.63;;;17.80;99.90;;;;;;5010400;28;20475;-77
2022/08/18 01:27:43;;;;;;;9.67;8.77;;;17.80;99.90;;;;;;5010010;28;20522;-78
2022/08/18 01:30:13;;;;;;;10.67;9.47;;;17.90;99.90;;;;;;4992698;28;21240;-78
2022/08/18 01:32:40;;;;;;;13.97;10.27;;;17.90;99.90;;;;;;4992553;28;20206;-77
2022/08/18 01:35:08;;;;;;;11.40;10.20;;;17.90;99.90;;;;;;5010515;28;20450;-78
2022/08/18 01:37:35;;;;;;;13.93;11.57;;;18.00;99.90;;;;;;5010260;28;20444;-78
2022/08/18 01:40:04;;;;;;;11.80;10.60;;;18.00;99.90;;;;;;5010504;28;20413;-78
2022/08/18 01:42:30;;;;;;;14.93;12.03;;;18.00;99.90;;;;;;4977093;28;20534;-77
2022/08/18 01:44:56;;;;;;;13.20;11.30;;;18.10;99.90;;;;;;4992431;28;20511;-78
2022/08/18 01:47:22;;;;;;;13.60;11.63;;;18.10;99.90;;;;;;5010120;28;20197;-78
2022/08/18 01:49:48;;;;;;;12.07;9.83;;;18.10;99.90;;;;;;5010436;28;20637;-79
2022/08/18 01:52:20;;;;;;;12.70;11.40;;;18.10;99.90;;;;;;5010200;28;20546;-80
2022/08/18 01:54:47;;;;;;;17.07;11.50;;;18.20;99.90;;;;;;5010126;28;20816;-79
2022/08/18 01:57:14;;;;;;;13.90;11.73;;;18.20;99.90;;;;;;5010133;28;20456;-78
2022/08/18 01:59:41;;;;;;;12.73;11.00;;;18.10;99.90;;;;;;5009922;28;20996;-79
2022/08/18 02:02:11;;;;;;;16.50;10.80;;;17.90;99.90;;;;;;4992260;28;20478;-79
2022/08/18 02:04:36;;;;;;;12.57;11.30;;;17.80;99.90;;;;;;5010511;28;21120;-79
2022/08/18 02:07:08;;;;;;;13.23;11.83;;;17.70;99.90;;;;;;4993102;28;20470;-79
2022/08/18 02:09:34;;;;;;;12.27;10.97;;;17.60;99.90;;;;;;4992930;28;20683;-79
2022/08/18 02:12:00;;;;;;;15.70;12.30;;;17.70;99.90;;;;;;4992761;28;20813;-79
2022/08/18 02:14:25;;;;;;;12.97;11.63;;;17.70;99.90;;;;;;4992314;28;20438;-79
2022/08/18 02:16:51;;;;;;;13.33;11.43;;;17.80;99.90;;;;;;4975794;28;20192;-79
2022/08/18 02:19:17;;;;;;;13.30;12.00;;;17.90;99.90;;;;;;4991849;28;20184;-79
2022/08/18 02:21:42;;;;;;;15.67;13.80;;;17.90;99.90;;;;;;4991976;28;20220;-79
2022/08/18 02:24:08;;;;;;;13.90;12.37;;;18.00;99.90;;;;;;4975810;28;20199;-79
2022/08/18 02:26:34;;;;;;;13.13;11.73;;;18.00;99.90;;;;;;4975759;28;20232;-79
2022/08/18 02:28:59;;;;;;;18.63;13.07;;;18.00;99.90;;;;;;4992026;28;20176;-79
2022/08/18 02:31:25;;;;;;;18.60;13.50;;;17.80;99.90;;;;;;4991965;28;20333;-81
2022/08/18 02:33:51;;;;;;;16.43;13.00;;;17.70;99.90;;;;;;4991964;28;20649;-81
2022/08/18 02:36:17;;;;;;;16.90;13.30;;;17.70;99.90;;;;;;4991780;28;20196;-81
2022/08/18 02:38:43;;;;;;;16.90;14.03;;;17.80;99.90;;;;;;4992218;28;20516;-81
2022/08/18 02:41:13;;;;;;;16.93;14.13;;;17.70;99.90;;;;;;5009771;28;20568;-80
2022/08/18 02:43:40;;;;;;;14.40;11.77;;;17.80;99.90;;;;;;4991996;28;20486;-79
2022/08/18 02:46:07;;;;;;;15.97;12.60;;;17.70;99.90;;;;;;5009828;28;21037;-79
2022/08/18 02:48:33;;;;;;;20.13;11.10;;;17.80;99.90;;;;;;4992386;28;20428;-78
2022/08/18 02:51:09;;;;;;;14.67;13.23;;;18.00;99.90;;;;;;5009867;28;20409;-78
2022/08/18 02:53:36;;;;;;;16.17;12.70;;;18.00;99.90;;;;;;4976598;28;20462;-78
2022/08/18 02:56:23;;;;;;;14.37;12.60;;;18.10;99.90;;;;;;5009585;28;20792;-76
2022/08/18 02:58:54;;;;;;;14.83;13.30;;;18.20;99.90;;;;;;4992138;28;20434;-79
2022/08/18 03:01:21;;;;;;;13.83;12.03;;;18.20;99.90;;;;;;5009191;28;20447;-78
2022/08/18 03:03:49;;;;;;;14.20;12.70;;;18.20;99.90;;;;;;5009123;28;20595;-79
2022/08/18 03:06:16;;;;;;;13.40;11.90;;;18.20;99.90;;;;;;5008822;28;20486;-79
2022/08/18 03:08:42;;;;;;;16.67;13.57;;;18.30;99.90;;;;;;4991700;28;20428;-79
2022/08/18 03:11:08;;;;;;;13.30;11.90;;;18.30;99.90;;;;;;4975125;28;20522;-78
2022/08/18 03:13:34;;;;;;;15.90;14.20;;;18.30;99.90;;;;;;5009211;28;20503;-78
2022/08/18 03:16:00;;;;;;;16.80;13.43;;;18.30;99.90;;;;;;4994870;28;20520;-79
2022/08/18 03:18:25;;;;;;;15.17;12.57;;;18.30;99.90;;;;;;5012506;28;20209;-78
2022/08/18 03:20:51;;;;;;;17.10;15.23;;;18.30;99.90;;;;;;4994728;28;20264;-77
2022/08/18 03:23:17;;;;;;;21.03;13.83;;;18.20;99.90;;;;;;4994460;28;20757;-77
2022/08/18 03:25:48;;;;;;;16.20;14.27;;;18.20;99.90;;;;;;5011957;28;20188;-78
2022/08/18 03:28:15;;;;;;;16.60;13.03;;;18.20;99.90;;;;;;4994466;28;20795;-78
2022/08/18 03:30:42;;;;;;;15.97;12.77;;;18.10;99.90;;;;;;5012449;28;20419;-78
2022/08/18 03:33:08;;;;;;;19.03;14.80;;;18.10;99.90;;;;;;5012258;28;20439;-78
2022/08/18 03:35:36;;;;;;;18.03;14.43;;;17.90;99.90;;;;;;5012286;28;21035;-77
2022/08/18 03:38:02;;;;;;;18.33;14.20;;;17.80;99.90;;;;;;5012213;28;21015;-77
2022/08/18 03:40:28;;;;;;;22.53;14.93;;;17.70;99.90;;;;;;4994476;28;20434;-76
2022/08/18 03:42:55;;;;;;;20.07;14.77;;;17.80;99.90;;;;;;4994497;28;20453;-77
2022/08/18 03:45:22;;;;;;;18.73;15.07;;;17.80;99.90;;;;;;5012407;28;20200;-77
2022/08/18 03:47:49;;;;;;;17.23;14.33;;;17.80;99.90;;;;;;5012179;28;20933;-77
2022/08/18 03:50:15;;;;;;;23.63;16.10;;;17.80;99.90;;;;;;5012587;28;20420;-79
2022/08/18 03:52:41;;;;;;;17.37;15.40;;;17.80;99.90;;;;;;5012703;28;20440;-79
2022/08/18 03:55:07;;;;;;;18.87;15.57;;;17.90;99.90;;;;;;4994943;28;20195;-79
2022/08/18 03:57:32;;;;;;;18.27;14.13;;;17.90;99.90;;;;;;4994687;28;20213;-79
2022/08/18 03:59:58;;;;;;;18.50;16.20;;;17.90;99.90;;;;;;5012185;28;20448;-79
2022/08/18 04:02:24;;;;;;;25.67;15.50;;;17.90;99.90;;;;;;5012035;28;20780;-80
2022/08/18 04:04:50;;;;;;;17.73;15.80;;;17.90;99.90;;;;;;5012160;28;20450;-80
2022/08/18 04:07:16;;;;;;;17.07;14.60;;;17.90;99.90;;;;;;4978789;28;20212;-78
2022/08/18 04:09:42;;;;;;;17.70;14.80;;;17.80;99.90;;;;;;4994227;28;20180;-78
2022/08/18 04:12:12;;;;;;;17.60;14.63;;;17.70;99.90;;;;;;5011860;28;20471;-78
2022/08/18 04:14:40;;;;;;;22.00;14.37;;;17.50;99.90;;;;;;5012010;28;20506;-78
2022/08/18 04:17:07;;;;;;;17.80;13.97;;;17.40;99.90;;;;;;5011855;28;20445;-79
2022/08/18 04:19:33;;;;;;;16.73;15.03;;;17.30;99.90;;;;;;4977929;28;20422;-79
2022/08/18 04:22:02;;;;;;;17.97;14.30;;;17.30;99.90;;;;;;4977921;28;20548;-78
2022/08/18 04:24:29;;;;;;;20.10;15.90;;;17.40;99.90;;;;;;4993955;28;20435;-79
2022/08/18 04:26:57;;;;;;;22.10;16.70;;;17.50;99.90;;;;;;4993260;28;20873;-79
2022/08/18 04:29:22;;;;;;;19.53;15.80;;;17.50;99.90;;;;;;5011362;28;20466;-77
2022/08/18 04:31:50;;;;;;;16.93;15.13;;;17.50;99.90;;;;;;5010006;28;20523;-77
2022/08/18 04:34:17;;;;;;;18.17;15.73;;;17.50;99.90;;;;;;4992364;28;20242;-78
2022/08/18 04:36:43;;;;;;;18.87;14.93;;;17.50;99.90;;;;;;5009889;28;20449;-77
2022/08/18 04:39:10;;;;;;;20.67;16.57;;;17.50;99.90;;;;;;5009732;28;20450;-78
2022/08/18 04:41:42;;;;;;;21.30;14.80;;;17.50;99.90;;;;;;5009782;28;20459;-78
2022/08/18 04:44:09;;;;;;;20.83;15.70;;;17.50;99.90;;;;;;5009950;28;20417;-78
2022/08/18 04:46:41;;;;;;;19.43;16.97;;;17.50;99.90;;;;;;5009712;28;20470;-78
2022/08/18 04:49:08;;;;;;;18.70;16.17;;;17.60;99.90;;;;;;5009584;28;20490;-77
2022/08/18 04:51:34;;;;;;;26.27;18.53;;;17.60;99.90;;;;;;5009736;28;20443;-78
2022/08/18 04:54:00;;;;;;;17.10;14.77;;;17.60;99.90;;;;;;5009651;28;20415;-78
2022/08/18 04:56:28;;;;;;;18.90;15.13;;;17.60;99.90;;;;;;5009600;28;20425;-78
2022/08/18 04:59:13;;;;;;;19.77;14.63;;;17.60;99.90;;;;;;5009734;28;20193;-77
2022/08/18 05:01:46;;;;;;;16.23;14.03;;;17.60;99.90;;;;;;5009101;28;20484;-78
2022/08/18 05:04:15;;;;;;;17.30;14.90;;;17.70;99.90;;;;;;5008913;28;20467;-78
2022/08/18 05:06:42;;;;;;;18.00;14.00;;;17.70;99.90;;;;;;4991480;28;20474;-77
2022/08/18 05:09:09;;;;;;;16.40;13.33;;;17.80;99.90;;;;;;4975314;28;20987;-78
2022/08/18 05:11:37;;;;;;;16.27;13.07;;;17.80;99.90;;;;;;4991009;28;20483;-78
2022/08/18 05:14:06;;;;;;;20.13;13.90;;;17.90;99.90;;;;;;5008990;28;20430;-78
2022/08/18 05:16:34;;;;;;;17.00;14.17;;;17.90;99.90;;;;;;5008607;28;20444;-78
2022/08/18 05:19:03;;;;;;;20.90;13.67;;;18.00;99.90;;;;;;5008686;28;20416;-77
2022/08/18 05:21:29;;;;;;;18.30;14.80;;;18.00;99.90;;;;;;4991793;28;20514;-78
2022/08/18 05:23:55;;;;;;;17.33;14.27;;;18.10;99.90;;;;;;5008661;28;20427;-77
2022/08/18 05:26:21;;;;;;;14.77;13.23;;;18.10;99.90;;;;;;4991087;28;20464;-77
2022/08/18 05:28:47;;;;;;;19.43;15.10;;;18.00;99.90;;;;;;5009360;28;20191;-78
2022/08/18 05:31:16;;;;;;;22.57;14.17;;;18.10;99.90;;;;;;5008940;28;20474;-77
2022/08/18 05:33:42;;;;;;;17.43;15.63;;;18.10;99.90;;;;;;5008973;28;20177;-78
2022/08/18 05:36:20;;;;;;;16.53;14.53;;;18.20;99.90;;;;;;5008922;28;20485;-78
2022/08/18 05:39:11;;;;;;;18.43;15.90;;;18.20;99.90;;;;;;5008136;28;20408;-78
2022/08/18 05:41:58;;;;;;;13.40;12.10;;;18.20;99.90;;;;;;5008508;28;21014;-77
2022/08/18 05:44:27;;;;;;;14.77;12.70;;;18.30;99.90;;;;;;4994249;28;20500;-78
2022/08/18 05:47:05;;;;;;;15.57;13.50;;;18.30;99.90;;;;;;4974905;28;20508;-78
2022/08/18 05:49:32;;;;;;;20.03;14.30;;;18.30;99.90;;;;;;5009012;28;20420;-78
2022/08/18 05:52:02;;;;;;;17.90;14.70;;;18.30;99.90;;;;;;5008672;28;20468;-79
2022/08/18 05:57:44;;;;;;;18.37;14.40;;;18.40;99.90;;;;;;5008836;28;20884;-78
2022/08/18 06:00:11;;;;;;;16.57;14.87;;;18.40;99.90;;;;;;5008607;28;20404;-78
2022/08/18 06:02:58;;;;;;;13.43;11.57;;;18.50;99.90;;;;;;5008883;28;20527;-78
2022/08/18 06:05:31;;;;;;;10.23;9.23;;;18.60;99.90;;;;;;4992256;28;20426;-79
2022/08/18 06:08:07;;;;;;;11.20;10.10;;;18.80;99.90;;;;;;5010144;28;20458;-78
2022/08/18 06:10:33;;;;;;;10.60;9.50;;;18.80;99.90;;;;;;5010513;28;20458;-79
2022/08/18 06:13:01;;;;;;;9.70;8.80;;;18.90;99.90;;;;;;4992773;28;20484;-78
2022/08/18 06:15:53;;;;;;;11.40;9.10;;;18.90;99.90;;;;;;5010806;28;20519;-78
2022/08/18 06:18:36;;;;;;;9.43;8.43;;;19.20;99.90;;;;;;5010360;28;20419;-78
2022/08/18 06:21:38;;;;;;;10.27;8.50;;;19.30;99.90;;;;;;5009692;28;20433;-78
2022/08/18 06:24:07;;;;;;;9.53;7.60;;;19.40;99.90;;;;;;5009384;28;20415;-79
2022/08/18 06:27:02;;;;;;;9.57;8.67;;;19.50;99.90;;;;;;5009736;28;20491;-78
2022/08/18 06:29:34;;;;;;;8.93;7.57;;;19.40;99.90;;;;;;5009657;28;20842;-79
2022/08/18 06:32:33;;;;;;;9.03;8.10;;;19.30;99.90;;;;;;4991792;28;20997;-78
2022/08/18 06:35:10;;;;;;;9.17;8.17;;;19.40;99.90;;;;;;5009420;28;20412;-79
2022/08/18 06:40:46;;;;;;;10.60;8.63;;;19.40;99.90;;;;;;5009710;28;20484;-77
2022/08/18 06:43:15;;;;;;;12.40;8.60;;;19.40;99.90;;;;;;4991489;28;20534;-78
2022/08/18 06:45:44;;;;;;;10.63;9.10;;;19.40;99.90;;;;;;5008671;28;20448;-78
2022/08/18 06:48:31;;;;;;;8.80;8.00;;;19.40;99.90;;;;;;4990672;28;20495;-78
2022/08/18 06:50:59;;;;;;;9.90;8.90;;;19.40;99.90;;;;;;5011652;28;20438;-80
2022/08/18 06:53:56;;;;;;;11.57;9.10;;;19.50;99.90;;;;;;4993772;28;20489;-78
2022/08/18 06:56:37;;;;;;;10.93;8.90;;;19.50;99.90;;;;;;5011726;28;20844;-77
2022/08/18 06:59:23;;;;;;;10.73;9.70;;;19.50;99.90;;;;;;5011816;28;20422;-77
2022/08/18 07:02:11;;;;;;;10.50;9.40;;;19.50;99.90;;;;;;5012062;28;20546;-78
2022/08/18 07:04:56;;;;;;;10.37;9.13;;;19.60;99.90;;;;;;4981495;28;20427;-77
2022/08/18 07:07:30;;;;;;;10.30;9.00;;;19.60;99.90;;;;;;5013242;28;20450;-77
2022/08/18 07:09:55;;;;;;;8.90;8.10;;;19.80;99.90;;;;;;5013429;28;20453;-78
2022/08/18 07:12:29;;;;;;;8.50;7.70;;;19.80;99.90;;;;;;5012009;28;20439;-78
2022/08/18 07:15:01;;;;;;;8.97;7.77;;;19.70;99.90;;;;;;5011816;28;20181;-77
2022/08/18 07:17:28;;;;;;;9.73;7.97;;;19.70;99.90;;;;;;5011691;28;20522;-78
2022/08/18 07:20:16;;;;;;;9.00;7.37;;;19.70;99.90;;;;;;4993733;28;20481;-78
2022/08/18 07:22:58;;;;;;;10.33;7.77;;;19.80;99.90;;;;;;5011504;28;20970;-78
2022/08/18 07:25:40;;;;;;;8.10;6.80;;;19.90;99.90;;;;;;4993734;28;20912;-78
2022/08/18 07:28:06;;;;;;;8.63;7.77;;;20.10;99.90;;;;;;5011566;28;20454;-78
2022/08/18 07:30:36;;;;;;;9.73;8.80;;;20.00;99.90;;;;;;5011352;28;20988;-78
2022/08/18 07:33:11;;;;;;;9.50;8.50;;;20.00;99.90;;;;;;5011339;28;20685;-77
2022/08/18 07:35:48;;;;;;;11.43;8.10;;;19.90;99.90;;;;;;4993773;28;20437;-78
2022/08/18 07:38:34;;;;;;;8.73;7.67;;;19.90;99.90;;;;;;5011562;28;20427;-78
2022/08/18 07:41:22;;;;;;;8.60;7.47;;;19.90;99.90;;;;;;4977601;28;20950;-78
2022/08/18 07:43:51;;;;;;;10.10;8.97;;;19.90;99.90;;;;;;5011270;28;20956;-78
2022/08/18 07:46:37;;;;;;;12.00;9.60;;;19.80;99.90;;;;;;5010911;28;20499;-78
2022/08/18 07:49:05;;;;;;;9.90;8.50;;;19.80;99.90;;;;;;5010954;28;20497;-78
2022/08/18 07:51:35;;;;;;;9.93;8.97;;;19.70;99.90;;;;;;5010871;28;20440;-77
2022/08/18 07:54:13;;;;;;;11.13;8.67;;;19.60;99.90;;;;;;5011187;28;20437;-76
2022/08/18 07:56:56;;;;;;;10.07;8.80;;;19.60;99.90;;;;;;5010850;28;20447;-76
2022/08/18 07:59:45;;;;;;;9.70;8.27;;;19.60;99.90;;;;;;5010601;28;20428;-76
2022/08/18 08:02:14;;;;;;;10.23;7.50;;;19.60;99.90;;;;;;5009457;28;20585;-75
2022/08/18 08:04:57;;;;;;;13.73;8.10;;;19.60;99.90;;;;;;5010478;28;20424;-75
2022/08/18 08:07:34;;;;;;;7.60;6.87;;;19.70;99.90;;;;;;5010657;28;20440;-75
2022/08/18 08:10:00;;;;;;;8.67;7.87;;;19.90;99.90;;;;;;5010527;28;20422;-75
2022/08/18 08:12:52;;;;;;;8.60;7.40;;;20.00;99.90;;;;;;5010292;28;20911;-76
2022/08/18 08:15:41;;;;;;;9.63;8.50;;;20.00;99.90;;;;;;5010252;28;20300;-75
2022/08/18 08:18:11;;;;;;;11.70;8.33;;;20.00;99.90;;;;;;5010235;28;20400;-76
2022/08/18 08:20:57;;;;;;;8.43;7.63;;;20.10;99.90;;;;;;5010502;28;20950;-76
2022/08/18 08:23:45;;;;;;;8.27;7.53;;;20.20;99.90;;;;;;5010439;28;20431;-75
2022/08/18 08:26:42;;;;;;;7.83;7.03;;;20.30;99.90;;;;;;4992099;28;20463;-76
2022/08/18 08:29:10;;;;;;;10.07;8.20;;;20.50;99.90;;;;;;5010016;28;20995;-76
2022/08/18 08:32:11;;;;;;;8.13;7.13;;;20.80;99.90;;;;;;5009544;28;20428;-76
2022/08/18 08:34:49;;;;;;;16.93;9.30;;;21.20;99.90;;;;;;4929701;29;20926;-75
2022/08/18 08:37:29;;;;;;;7.77;6.93;;;21.40;99.90;;;;;;4999381;28;20802;-76
2022/08/18 08:40:07;;;;;;;11.97;7.10;;;21.60;99.90;;;;;;4991811;28;20420;-76
2022/08/18 08:42:39;;;;;;;7.20;6.60;;;21.70;99.90;;;;;;5009474;28;20443;-75
2022/08/18 08:45:14;;;;;;;6.73;5.80;;;21.80;99.90;;;;;;5009584;28;20432;-76
2022/08/18 08:47:53;;;;;;;6.27;5.77;;;21.90;99.90;;;;;;5009500;28;20491;-75
2022/08/18 08:50:23;;;;;;;7.10;6.10;;;21.90;99.90;;;;;;4991628;28;20925;-75
2022/08/18 08:53:04;;;;;;;7.17;6.27;;;21.80;99.90;;;;;;5009315;28;20490;-75
2022/08/18 08:55:34;;;;;;;5.80;5.27;;;21.70;99.90;;;;;;5009775;28;20437;-76
2022/08/18 08:58:36;;;;;;;6.33;5.73;;;21.60;99.90;;;;;;4992062;28;20424;-76
2022/08/18 09:01:04;;;;;;;6.60;6.00;;;21.60;99.90;;;;;;5009412;28;20406;-76
2022/08/18 09:03:41;;;;;;;7.57;6.43;;;21.70;99.90;;;;;;4991678;28;20432;-76
2022/08/18 09:06:15;;;;;;;7.33;5.50;;;21.80;99.90;;;;;;5009382;28;20412;-76
2022/08/18 09:08:58;;;;;;;6.30;5.70;;;22.00;99.90;;;;;;4991766;28;20805;-76
2022/08/18 09:11:42;;;;;;;6.93;6.23;;;22.10;99.90;;;;;;5008932;28;20474;-75
2022/08/18 09:14:30;;;;;;;6.63;6.00;;;22.20;99.90;;;;;;5009165;28;20935;-76
2022/08/18 09:17:42;;;;;;;6.73;6.17;;;22.40;99.90;;;;;;5008968;28;20425;-75
2022/08/18 09:20:34;;;;;;;6.17;5.57;;;22.60;99.90;;;;;;4973273;28;20460;-76
2022/08/18 09:23:24;;;;;;;9.10;5.93;;;22.70;99.90;;;;;;4968053;28;20444;-75
2022/08/18 09:26:18;;;;;;;6.00;5.50;;;22.80;99.90;;;;;;4998559;28;20440;-76
2022/08/18 09:28:59;;;;;;;5.90;5.40;;;22.90;99.90;;;;;;4990339;28;20494;-76
2022/08/18 09:31:27;;;;;;;6.10;5.27;;;23.10;99.90;;;;;;5008253;28;20441;-76
2022/08/18 09:34:07;;;;;;;7.40;5.87;;;23.20;99.90;;;;;;4990732;28;20852;-76
2022/08/18 09:36:53;;;;;;;6.30;5.80;;;23.30;99.90;;;;;;5008327;28;20780;-76
2022/08/18 09:42:36;;;;;;;6.77;6.10;;;23.90;99.90;;;;;;5008215;28;20555;-75
2022/08/18 09:45:27;;;;;;;6.77;6.07;;;24.50;99.90;;;;;;4990220;28;20428;-75
2022/08/18 09:47:52;;;;;;;8.50;6.10;;;25.10;99.90;;;;;;5007334;28;20537;-76
2022/08/18 09:50:27;;;;;;;7.63;6.97;;;25.50;99.90;;;;;;5008053;28;20820;-75
2022/08/18 09:53:13;;;;;;;7.43;6.67;;;25.80;99.90;;;;;;4990596;28;20200;-76
2022/08/18 09:55:50;;;;;;;9.30;6.77;;;26.20;99.90;;;;;;4990378;28;20433;-76
2022/08/18 09:58:40;;;;;;;6.90;6.10;;;26.70;99.90;;;;;;5007995;28;21218;-75
2022/08/18 10:01:33;;;;;;;7.83;7.03;;;27.00;99.90;;;;;;5007834;28;20458;-76
2022/08/18 10:04:13;;;;;;;7.40;5.97;;;27.20;99.90;;;;;;5008077;28;20411;-75
2022/08/18 10:06:45;;;;;;;7.53;6.83;;;27.30;99.90;;;;;;4990086;28;20467;-75
2022/08/18 10:09:41;;;;;;;7.03;6.43;;;27.20;99.90;;;;;;5008132;28;20412;-76
2022/08/18 10:12:20;;;;;;;7.93;7.23;;;27.50;99.90;;;;;;5007919;28;20435;-76
2022/08/18 10:15:07;;;;;;;8.27;7.50;;;27.30;99.90;;;;;;5007894;28;20502;-75
2022/08/18 10:17:45;;;;;;;7.23;6.63;;;27.10;99.90;;;;;;5008045;28;20427;-76
2022/08/18 10:20:48;;;;;;;7.53;6.83;;;27.10;99.90;;;;;;5008205;28;20436;-75
2022/08/18 10:23:52;;;;;;;6.20;5.70;;;26.80;99.90;;;;;;5008712;28;21003;-75
2022/08/18 10:26:30;;;;;;;8.27;7.47;;;26.70;99.90;;;;;;5014244;28;20469;-76
2022/08/18 10:29:02;;;;;;;7.03;6.30;;;26.70;99.90;;;;;;5014414;28;20415;-75
2022/08/18 10:31:30;;;;;;;9.97;7.13;;;26.50;99.90;;;;;;5014311;28;20442;-75
2022/08/18 10:33:58;;;;;;;8.73;7.80;;;26.30;99.90;;;;;;5014394;28;20477;-75
2022/08/18 10:36:42;;;;;;;7.03;6.23;;;26.40;99.90;;;;;;5014701;28;20469;-75
2022/08/18 10:39:36;;;;;;;8.63;7.47;;;26.80;99.90;;;;;;5015020;28;20496;-77
2022/08/18 10:42:11;;;;;;;8.53;6.50;;;27.20;99.90;;;;;;4985726;28;20459;-77
2022/08/18 10:44:43;;;;;;;10.40;7.60;;;27.50;99.90;;;;;;5014964;28;20500;-76
2022/08/18 10:47:28;;;;;;;8.07;7.37;;;27.60;99.90;;;;;;5014667;28;20959;-76
2022/08/18 10:49:55;;;;;;;7.63;6.93;;;27.90;99.90;;;;;;5014838;28;20497;-77
2022/08/18 10:52:39;;;;;;;8.77;7.80;;;28.20;99.80;;;;;;5014632;28;20438;-76
2022/08/18 10:55:26;;;;;;;9.07;8.17;;;28.50;99.60;;;;;;4996640;28;20435;-76
2022/08/18 10:57:59;;;;;;;9.20;7.20;;;28.40;99.90;;;;;;5014385;28;20922;-76
2022/08/18 11:00:47;;;;;;;8.37;6.80;;;28.60;99.90;;;;;;5014143;28;20939;-76
2022/08/18 11:03:25;;;;;;;9.73;6.93;;;28.70;98.90;;;;;;5014157;28;20471;-76
2022/08/18 11:06:07;;;;;;;8.73;7.30;;;28.80;98.90;;;;;;5014010;28;20450;-76
2022/08/18 11:08:42;;;;;;;7.20;6.60;;;28.70;98.50;;;;;;5013952;28;20421;-76
2022/08/18 11:11:11;;;;;;;7.23;6.40;;;28.70;97.50;;;;;;5013919;28;20449;-76
2022/08/18 11:14:10;;;;;;;9.60;7.70;;;28.90;96.40;;;;;;4995723;28;20510;-76
2022/08/18 11:16:47;;;;;;;11.63;8.40;;;29.10;96.30;;;;;;5013874;28;20912;-76
2022/08/18 11:19:15;;;;;;;10.63;9.53;;;29.00;96.90;;;;;;5013823;28;20407;-76
2022/08/18 11:21:46;;;;;;;8.97;8.17;;;28.60;98.10;;;;;;5013763;28;20443;-76
2022/08/18 11:24:12;;;;;;;8.13;7.33;;;28.70;97.90;;;;;;4996006;28;20869;-76
2022/08/18 11:26:46;;;;;;;13.50;8.93;;;28.70;97.60;;;;;;5013901;28;20544;-76
2022/08/18 11:29:23;;;;;;;10.93;9.93;;;28.40;98.30;;;;;;5013986;28;20200;-76
2022/08/18 11:31:57;;;;;;;14.00;8.00;;;28.60;99.30;;;;;;5013753;28;20439;-76
2022/08/18 11:34:36;;;;;;;13.57;12.20;;;28.40;99.10;;;;;;5013979;28;20425;-76
2022/08/18 11:37:18;;;;;;;12.47;9.60;;;28.50;99.00;;;;;;5011023;28;20420;-76
2022/08/18 11:39:49;;;;;;;12.50;10.20;;;28.70;99.60;;;;;;5010826;28;20416;-76
2022/08/18 11:42:18;;;;;;;9.93;8.70;;;28.70;98.40;;;;;;4992777;28;20467;-75
2022/08/18 11:44:44;;;;;;;9.47;8.57;;;28.40;98.40;;;;;;5011079;28;20424;-76
2022/08/18 11:47:19;;;;;;;9.00;8.13;;;28.50;98.10;;;;;;5010958;28;20563;-76
2022/08/18 11:49:53;;;;;;;9.47;8.57;;;28.30;98.70;;;;;;4993024;28;20435;-76
2022/08/18 11:52:24;;;;;;;9.30;8.50;;;28.40;98.40;;;;;;4993285;28;20520;-76
2022/08/18 11:54:51;;;;;;;8.33;7.53;;;28.20;98.60;;;;;;5011052;28;20412;-77
2022/08/18 11:57:40;;;;;;;9.10;8.20;;;28.20;99.90;;;;;;5010915;28;20507;-76
2022/08/18 12:00:38;;;;;;;9.60;7.50;;;28.10;98.90;;;;;;5010705;28;20773;-76
2022/08/18 12:03:07;;;;;;;9.13;8.30;;;28.20;98.80;;;;;;5010664;28;20521;-76
2022/08/18 12:05:52;;;;;;;9.80;8.80;;;28.20;98.00;;;;;;5010570;28;20929;-76
2022/08/18 12:08:28;;;;;;;10.07;9.10;;;28.10;98.80;;;;;;5010199;28;20975;-76
2022/08/18 12:11:13;;;;;;;8.57;7.67;;;28.20;99.10;;;;;;5010640;28;20419;-76
2022/08/18 12:13:40;;;;;;;12.00;7.90;;;28.30;99.30;;;;;;5010676;28;20491;-76
2022/08/18 12:16:13;;;;;;;8.43;7.30;;;28.30;98.00;;;;;;4993431;28;20431;-76
2022/08/18 12:18:39;;;;;;;9.43;8.63;;;28.60;97.40;;;;;;4992676;28;20456;-75
2022/08/18 12:21:05;;;;;;;9.10;8.00;;;28.50;97.70;;;;;;5010413;28;20474;-75
2022/08/18 12:23:33;;;;;;;12.57;8.43;;;28.70;97.00;;;;;;5010942;28;20420;-75
2022/08/18 12:25:59;;;;;;;8.67;7.63;;;28.90;96.50;;;;;;5010400;28;20856;-75
2022/08/18 12:28:26;;;;;;;8.87;7.17;;;29.10;96.90;;;;;;5010427;28;20510;-76
2022/08/18 12:30:52;;;;;;;8.47;7.67;;;29.20;95.70;;;;;;5010498;28;20474;-76
2022/08/18 12:33:18;;;;;;;9.03;8.13;;;29.20;95.30;;;;;;4992801;28;20464;-75
2022/08/18 12:35:43;;;;;;;10.40;7.90;;;29.40;95.30;;;;;;5010423;28;20478;-75
2022/08/18 12:38:11;;;;;;;9.47;7.30;;;29.50;95.50;;;;;;5010103;28;20284;-75
2022/08/18 12:40:37;;;;;;;7.97;7.27;;;29.60;95.20;;;;;;5009853;28;20180;-76
2022/08/18 12:43:02;;;;;;;9.73;7.23;;;29.30;94.70;;;;;;5009742;28;20865;-75
2022/08/18 12:45:29;;;;;;;8.40;7.60;;;29.10;96.00;;;;;;5009804;28;20416;-76
2022/08/18 12:47:55;;;;;;;9.87;8.70;;;29.00;95.90;;;;;;5008997;28;20296;-76
2022/08/18 12:50:21;;;;;;;9.20;8.17;;;28.50;96.10;;;;;;5009646;28;20423;-75
2022/08/18 12:52:47;;;;;;;8.90;7.80;;;28.10;97.00;;;;;;5009572;28;20436;-76
2022/08/18 12:55:13;;;;;;;8.37;7.57;;;27.80;96.80;;;;;;4992296;28;20514;-76
2022/08/18 12:57:39;;;;;;;11.63;8.40;;;27.40;97.80;;;;;;4992640;28;20184;-75
2022/08/18 13:00:07;;;;;;;10.83;8.50;;;27.10;98.80;;;;;;5010695;28;20474;-78
2022/08/18 13:02:33;;;;;;;11.73;8.63;;;26.90;99.90;;;;;;4992411;28;20274;-78
2022/08/18 13:04:58;;;;;;;10.00;9.10;;;26.80;99.90;;;;;;5010400;28;20427;-78
2022/08/18 13:07:24;;;;;;;10.20;9.20;;;26.70;99.90;;;;;;5010018;28;20216;-78
2022/08/18 13:09:49;;;;;;;11.80;8.67;;;26.40;99.90;;;;;;4992188;28;20189;-77
2022/08/18 13:12:16;;;;;;;10.23;8.53;;;26.30;99.90;;;;;;5009605;28;20203;-78
2022/08/18 13:14:41;;;;;;;9.30;8.50;;;26.20;99.90;;;;;;5009618;28;20235;-77
2022/08/18 13:17:08;;;;;;;11.67;9.70;;;26.10;99.90;;;;;;4991640;28;20476;-78
2022/08/18 13:19:34;;;;;;;9.53;8.63;;;26.00;99.90;;;;;;4975678;28;20275;-77
2022/08/18 13:21:59;;;;;;;9.77;8.87;;;25.90;99.90;;;;;;5009508;28;21025;-77
2022/08/18 13:24:25;;;;;;;10.70;8.70;;;25.90;99.90;;;;;;4991787;28;20205;-77